Puvirnituq - southern half: Past 24 Hour Conditions

 

Resolute Airport

10:00 PM CST 20 November 2014
This table is a summary of hourly weather conditions for the past 24 hours.
Date / Time
(CST)
Wind(knots) Conditions Visibility(km) Pressure(kPa) Air tempC) Relative humidity(%) Dew pointC) Wind Chill
20 November 2014
22:00 NNE 25 N/A N/A 99.3 -27 75 -30 -44
21:00 NNE 30 gust 35 Ice Crystals 13 99.4 -26 74 -29 -44
20:00 N 12 Ice Crystals 24 99.6 -26 73 -30 -39
19:00 NE 24 Ice Crystals 24 99.6 -26 74 -29 -42
18:00 NNE 20 Ice Crystals 24 99.7 -27 72 -31 -43
17:00 NNW 10 gust 15 Ice Crystals 24 99.8 -26 72 -30 -38
16:00 WSW 14 Ice Crystals 16 99.9 -28 75 -31 -42
15:00 NW 8 Ice Crystals 24 99.9 -28 74 -32 -39
14:00 N 14 Mainly Clear 24 100.0 -28 73 -32 -43
13:00 NW 17 Clear 16 100.0 -28 72 -32 -44
12:00 NW 16 Mainly Clear 16 100.1 -28 72 -32 -43
11:00 WNW 9 Mainly Clear 24 100.2 -28 71 -31 -39
10:00 NNW 13 gust 18 Clear 24 100.3 -28 71 -32 -42
9:00 WNW 15 Clear 24 100.3 -26 72 -30 -40
8:00 NE 21 Clear 24 100.4 -27 72 -30 -43
7:00 N 12 gust 20 Mainly Clear 24 100.4 -26 72 -30 -39
6:00 N 11 Mainly Clear 24 100.4 -26 73 -29 -38
5:00 NNE 11 Mainly Clear 24 100.5 -24 72 -28 -36
4:00 NNE 28 gust 33 Ice Crystals 10 100.4 -22 72 -26 -38
3:00 NNE 22 Light Snow 10 100.4 -21 72 -25 -36
2:00 N 13 Light Snow 24 100.5 -21 74 -24 -33
1:00 N 20 Light Snow 8 100.4 -21 76 -24 -34
0:00 NE 25 Light Snow 6 100.4 -21 76 -24 -36
19 November 2014
23:00 NNE 28 Light Snow 6 100.4 -21 77 -24 -37
22:00 NNE 25 Light Snow 10 100.5 -21 77 -24 -36
 
Map of Arctic - Eastern Arctic marine weather areas Baker Lake Airport Chesterfield Inlet Airport Coral Harbour Airport Gjoa Haven Airport Kugaaruk Airport Rankin Inlet Airport Shepherd Bay Airport Whale Cove Airport Arctic Bay Brevoort Island Qikiqtarjuaq Airport Cape Dorset Airport Cape Dyer Cape Hooper Clyde Airport Grise Fiord Airport Hall Beach Airport Igloolik Airport Iqaluit Airport Longstaff Bluff Pangnirtung Airport Pond Inlet Airport Repulse Bay Airport Resolute Airport Resolution Island Rowley Island Airport Taloyoak Airport Wager Bay Akulivik Airport Ivujivik Airport Puvirnituq Airport Kangiqsujuaq Airport Kangirsuk Airport Quaqtaq Airport Tasiujaq Airport Cape Kakkiviak Cape Kiglapait Nain Airport Saglek Cape Mercy Kimmirut Airport Aupaluk Airport Salluit Airport Kangiqsualujjuaq Airport Fort Ross
Legend: buoyBuoy land stationLand Station